Time;durP1;ratioP1;P1;durP2;ratioP2;P2;SDS_P1;SDS_P2;PMS_P1;PMS_P2;Temp;Humidity;BMP_temperature;BMP_pressure;BME280_temperature;BME280_humidity;BME280_pressure;Samples;Min_cycle;Max_cycle;Signal;HPM_P1;HPM_P2
2022/06/27 00:00:14;;;;;;;2.13;1.00;;;18.10;89.50;;;;;;2092941;28;20036;-90
2022/06/27 00:01:34;;;;;;;2.78;1.20;;;18.10;89.50;;;;;;2088272;28;20045;-90
2022/06/27 00:02:53;;;;;;;3.17;1.00;;;18.20;89.50;;;;;;2070346;28;20046;-90
2022/06/27 00:04:13;;;;;;;2.03;0.88;;;18.20;89.50;;;;;;2072405;28;20030;-91
2022/06/27 00:05:33;;;;;;;2.17;0.93;;;18.20;89.60;;;;;;2099807;28;20040;-90
2022/06/27 00:06:53;;;;;;;1.70;1.00;;;18.10;89.60;;;;;;2101591;28;20448;-91
2022/06/27 00:08:15;;;;;;;3.28;1.20;;;18.10;89.70;;;;;;2086672;28;20041;-91
2022/06/27 00:09:35;;;;;;;2.20;1.10;;;18.20;89.80;;;;;;2072610;28;20050;-90
2022/06/27 00:10:55;;;;;;;1.88;1.08;;;18.10;89.80;;;;;;2090646;28;20071;-90
2022/06/27 00:12:15;;;;;;;2.03;1.05;;;18.10;89.80;;;;;;2105317;28;20040;-91
2022/06/27 00:13:34;;;;;;;1.55;1.00;;;18.10;89.80;;;;;;2105370;28;20040;-91
2022/06/27 00:14:54;;;;;;;3.42;1.10;;;18.10;89.90;;;;;;2082977;28;20065;-91
2022/06/27 00:16:13;;;;;;;2.63;1.10;;;18.10;89.90;;;;;;2089988;28;20053;-90
2022/06/27 00:17:33;;;;;;;2.20;0.93;;;18.20;90.00;;;;;;2091674;28;20037;-91
2022/06/27 00:18:52;;;;;;;1.52;0.90;;;18.20;90.00;;;;;;2101950;28;20032;-90
2022/06/27 00:20:12;;;;;;;2.45;1.00;;;18.20;90.00;;;;;;2090786;28;20041;-91
2022/06/27 00:21:32;;;;;;;2.00;1.00;;;18.20;90.00;;;;;;2096177;28;20036;-91
2022/06/27 00:23:01;;;;;;;2.10;1.10;;;18.10;89.90;;;;;;2084661;28;20045;-91
2022/06/27 00:24:20;;;;;;;1.75;1.10;;;18.10;89.90;;;;;;2098049;28;21474;-90
2022/06/27 00:25:39;;;;;;;2.20;1.00;;;18.10;90.00;;;;;;2082657;28;20045;-90
2022/06/27 00:27:01;;;;;;;2.78;1.08;;;18.10;90.00;;;;;;2088375;28;20033;-90
2022/06/27 00:28:20;;;;;;;2.55;0.98;;;18.10;90.00;;;;;;2103695;28;20186;-91
2022/06/27 00:29:41;;;;;;;1.42;0.93;;;18.10;90.00;;;;;;2093751;28;20116;-91
2022/06/27 00:31:01;;;;;;;;;;;18.10;90.00;;;;;;2086627;28;20033;-91
2022/06/27 00:32:21;;;;;;;1.63;0.93;;;18.10;90.00;;;;;;2089072;28;19912;-91
2022/06/27 00:33:41;;;;;;;;;;;18.00;90.00;;;;;;2083438;28;20038;-91
2022/06/27 00:35:00;;;;;;;2.00;0.95;;;18.00;90.00;;;;;;2083454;28;19946;-90
2022/06/27 00:36:19;;;;;;;1.45;0.80;;;18.00;90.00;;;;;;2084841;28;20045;-91
2022/06/27 00:37:38;;;;;;;2.00;1.08;;;18.00;90.00;;;;;;2086836;28;20037;-91
2022/06/27 00:38:59;;;;;;;1.65;0.88;;;18.00;90.00;;;;;;2079616;28;20042;-90
2022/06/27 00:40:19;;;;;;;2.05;0.90;;;18.00;90.00;;;;;;2079090;28;20037;-90
2022/06/27 00:41:39;;;;;;;1.63;1.05;;;18.00;90.00;;;;;;2085164;28;20067;-91
2022/06/27 00:42:58;;;;;;;2.00;1.02;;;18.00;90.00;;;;;;2101403;28;20490;-91
2022/06/27 00:44:40;;;;;;;2.03;0.90;;;18.00;90.10;;;;;;2094196;28;20045;-92
2022/06/27 00:46:00;;;;;;;2.30;1.00;;;18.00;90.10;;;;;;2101092;28;20036;-90
2022/06/27 00:47:20;;;;;;;1.98;0.88;;;18.00;90.10;;;;;;2087819;28;20053;-90
2022/06/27 00:48:40;;;;;;;;;;;18.00;90.10;;;;;;2085735;28;20045;-90
2022/06/27 00:49:59;;;;;;;2.63;1.10;;;18.00;90.00;;;;;;2097252;28;19979;-89
2022/06/27 00:51:20;;;;;;;1.35;0.80;;;18.00;90.00;;;;;;2096046;28;20048;-89
2022/06/27 00:52:41;;;;;;;3.75;1.13;;;18.00;90.00;;;;;;2093427;28;20048;-91
2022/06/27 00:54:03;;;;;;;1.33;0.90;;;18.00;90.00;;;;;;2092086;28;20041;-89
2022/06/27 00:55:24;;;;;;;1.42;0.80;;;18.00;90.10;;;;;;2088317;28;20406;-89
2022/06/27 00:56:44;;;;;;;2.53;0.88;;;18.00;90.00;;;;;;2094178;28;20068;-91
2022/06/27 00:58:04;;;;;;;1.92;1.00;;;18.00;89.90;;;;;;2087873;28;20419;-91
2022/06/27 00:59:24;;;;;;;1.55;0.90;;;18.00;90.00;;;;;;2095046;28;20040;-91
2022/06/27 01:00:43;;;;;;;1.98;0.93;;;18.00;90.00;;;;;;2078591;28;20109;-91
2022/06/27 01:02:06;;;;;;;1.50;1.00;;;18.00;90.00;;;;;;2081288;28;20426;-91
2022/06/27 01:03:25;;;;;;;1.90;1.00;;;18.00;90.00;;;;;;2084933;28;20049;-92
2022/06/27 01:04:44;;;;;;;2.47;1.00;;;18.00;90.00;;;;;;2084986;28;20037;-92
2022/06/27 01:06:04;;;;;;;2.67;1.10;;;18.00;90.00;;;;;;2079637;28;20123;-91
2022/06/27 01:07:24;;;;;;;2.72;1.10;;;18.00;90.00;;;;;;2089518;28;20131;-91
2022/06/27 01:08:45;;;;;;;2.65;1.08;;;18.00;90.30;;;;;;2091289;28;20507;-92
2022/06/27 01:10:05;;;;;;;1.55;0.90;;;18.00;90.00;;;;;;2090968;28;20103;-92
2022/06/27 01:11:24;;;;;;;1.45;0.93;;;18.00;90.10;;;;;;2082742;28;20037;-92
2022/06/27 01:12:48;;;;;;;1.52;1.00;;;18.00;90.10;;;;;;2091783;28;20104;-92
2022/06/27 01:14:07;;;;;;;2.20;1.00;;;18.00;90.10;;;;;;2093836;28;20048;-91
2022/06/27 01:15:27;;;;;;;1.90;0.90;;;18.00;90.10;;;;;;2071238;28;20459;-91
2022/06/27 01:16:47;;;;;;;1.85;1.10;;;18.00;90.10;;;;;;2089520;28;20036;-91
2022/06/27 01:18:07;;;;;;;2.15;0.90;;;18.00;90.10;;;;;;2090788;28;20045;-91
2022/06/27 01:19:28;;;;;;;2.13;1.00;;;18.00;90.10;;;;;;2090896;28;20115;-91
2022/06/27 01:20:47;;;;;;;1.08;0.75;;;18.00;90.10;;;;;;2092727;28;20045;-91
2022/06/27 01:22:08;;;;;;;1.60;1.00;;;18.00;90.10;;;;;;2092101;28;20052;-91
2022/06/27 01:23:27;;;;;;;1.45;0.82;;;18.00;90.10;;;;;;2095764;28;20037;-92
2022/06/27 01:24:46;;;;;;;1.20;0.80;;;18.00;90.10;;;;;;2085373;28;20048;-91
2022/06/27 01:26:06;;;;;;;1.52;1.05;;;18.00;90.10;;;;;;2088811;28;20459;-91
2022/06/27 01:27:22;;;;;;;1.50;0.77;;;18.00;90.10;;;;;;2087240;28;20041;-91
2022/06/27 01:28:42;;;;;;;1.50;0.90;;;18.00;90.10;;;;;;2095008;28;20135;-91
2022/06/27 01:30:02;;;;;;;2.03;1.10;;;18.00;90.00;;;;;;2096167;28;20044;-91
2022/06/27 01:31:22;;;;;;;2.30;1.00;;;18.00;90.00;;;;;;2092424;28;20075;-92
2022/06/27 01:32:42;;;;;;;3.20;1.05;;;18.00;90.00;;;;;;2096055;28;20041;-92
2022/06/27 01:34:01;;;;;;;1.88;0.88;;;18.00;90.00;;;;;;2090518;28;20510;-91
2022/06/27 01:35:20;;;;;;;2.08;1.00;;;18.00;90.00;;;;;;2092741;28;20040;-91
2022/06/27 01:36:42;;;;;;;1.27;0.95;;;18.00;90.00;;;;;;2086730;28;20116;-91
2022/06/27 01:38:02;;;;;;;2.92;1.10;;;18.00;90.00;;;;;;2089270;28;20037;-91
2022/06/27 01:39:24;;;;;;;1.98;1.00;;;18.00;90.00;;;;;;2092556;28;20445;-91
2022/06/27 01:40:44;;;;;;;2.55;0.93;;;18.00;90.00;;;;;;2100936;28;20489;-91
2022/06/27 01:42:04;;;;;;;2.27;1.00;;;18.00;90.00;;;;;;2095818;28;20044;-91
2022/06/27 01:43:23;;;;;;;1.90;1.00;;;18.00;90.00;;;;;;2084019;28;20252;-91
2022/06/27 01:44:43;;;;;;;1.52;0.82;;;18.00;90.00;;;;;;2087900;28;20506;-91
2022/06/27 01:46:02;;;;;;;2.05;1.10;;;18.00;90.00;;;;;;2109288;28;20063;-91
2022/06/27 01:47:21;;;;;;;1.88;1.00;;;18.00;89.90;;;;;;2090564;28;20048;-91
2022/06/27 01:48:40;;;;;;;2.22;1.05;;;18.00;89.90;;;;;;2097290;28;20461;-91
2022/06/27 01:50:00;;;;;;;1.70;1.00;;;18.00;89.90;;;;;;2103455;28;20525;-91
2022/06/27 01:51:19;;;;;;;3.47;1.00;;;18.00;89.80;;;;;;2095321;28;20429;-91
2022/06/27 01:52:40;;;;;;;2.22;1.00;;;18.00;89.80;;;;;;2092389;28;20510;-90
2022/06/27 01:54:00;;;;;;;1.83;0.93;;;18.00;89.80;;;;;;2101357;28;20424;-91
2022/06/27 01:55:20;;;;;;;2.17;1.00;;;18.00;89.80;;;;;;2104994;28;20036;-91
2022/06/27 01:56:44;;;;;;;2.90;1.08;;;18.00;89.90;;;;;;2096928;28;20041;-91
2022/06/27 01:58:03;;;;;;;2.83;1.20;;;18.00;89.80;;;;;;2096269;28;20045;-91
2022/06/27 01:59:29;;;;;;;1.55;0.90;;;18.00;89.80;;;;;;2093221;28;20490;-91
2022/06/27 02:00:49;;;;;;;1.63;1.00;;;18.00;89.80;;;;;;2100582;28;20070;-90
2022/06/27 02:02:10;;;;;;;2.67;1.13;;;18.00;89.80;;;;;;2087217;28;20033;-91
2022/06/27 02:03:29;;;;;;;;;;;18.00;89.80;;;;;;2092614;28;20585;-91
2022/06/27 02:04:50;;;;;;;2.05;0.95;;;17.90;89.60;;;;;;2092537;28;19936;-91
2022/06/27 02:06:11;;;;;;;;;;;18.00;89.70;;;;;;2088408;28;20112;-91
2022/06/27 02:07:30;;;;;;;2.13;1.00;;;17.90;89.60;;;;;;2092625;28;20056;-91
2022/06/27 02:08:51;;;;;;;2.92;0.95;;;17.90;89.70;;;;;;2095721;28;20425;-92
2022/06/27 02:10:11;;;;;;;1.67;0.80;;;17.90;89.80;;;;;;2095606;28;20044;-91
2022/06/27 02:11:32;;;;;;;1.30;0.80;;;17.90;89.80;;;;;;2098922;28;20040;-91
2022/06/27 02:12:53;;;;;;;2.38;1.00;;;17.90;89.90;;;;;;2102944;28;20044;-91
2022/06/27 02:14:12;;;;;;;2.45;1.23;;;17.90;89.90;;;;;;2086809;28;20105;-91
2022/06/27 02:15:32;;;;;;;2.17;0.93;;;17.90;89.90;;;;;;2092336;28;20487;-92
2022/06/27 02:16:53;;;;;;;2.33;1.10;;;17.80;90.00;;;;;;2102375;28;20048;-91
2022/06/27 02:18:13;;;;;;;3.45;1.08;;;17.80;90.00;;;;;;2080946;28;20042;-91
2022/06/27 02:19:32;;;;;;;3.60;1.33;;;17.80;90.00;;;;;;2080383;28;20053;-92
2022/06/27 02:20:52;;;;;;;1.90;1.10;;;17.80;90.00;;;;;;2078750;28;20427;-91
2022/06/27 02:22:13;;;;;;;1.60;1.00;;;17.80;90.00;;;;;;2090345;28;20064;-92
2022/06/27 02:23:34;;;;;;;2.17;0.90;;;17.80;90.00;;;;;;2085989;28;20041;-92
2022/06/27 02:24:53;;;;;;;1.55;0.90;;;17.80;90.00;;;;;;2076006;28;20483;-91
2022/06/27 02:26:15;;;;;;;2.30;1.05;;;17.90;90.00;;;;;;2091477;28;20048;-91
2022/06/27 02:27:38;;;;;;;1.90;1.10;;;17.90;90.00;;;;;;2095973;28;20511;-90
2022/06/27 02:28:59;;;;;;;2.47;1.02;;;17.90;90.10;;;;;;2090307;28;20037;-92
2022/06/27 02:30:18;;;;;;;2.50;0.98;;;17.90;90.10;;;;;;2093352;28;20053;-91
2022/06/27 02:31:48;;;;;;;1.80;1.10;;;17.90;90.10;;;;;;2074105;28;20537;-91
2022/06/27 02:33:08;;;;;;;1.90;1.10;;;17.90;90.10;;;;;;2086637;28;20037;-91
2022/06/27 02:34:28;;;;;;;2.22;1.20;;;17.90;90.10;;;;;;2081769;28;20431;-91
2022/06/27 02:35:53;;;;;;;1.40;0.93;;;17.90;90.10;;;;;;2090116;28;20033;-91
2022/06/27 02:37:12;;;;;;;2.53;1.20;;;17.90;90.10;;;;;;2079971;28;20065;-91
2022/06/27 02:38:32;;;;;;;1.98;1.00;;;17.90;90.10;;;;;;2079955;28;20041;-91
2022/06/27 02:39:54;;;;;;;;;;;17.90;90.00;;;;;;2084836;28;20041;-92
2022/06/27 02:41:23;;;;;;;1.52;1.00;;;17.90;90.00;;;;;;2095554;28;19916;-93
2022/06/27 02:42:43;;;;;;;1.70;0.90;;;17.90;90.00;;;;;;2103665;28;20048;-92
2022/06/27 02:44:06;;;;;;;2.22;1.27;;;17.90;90.00;;;;;;2097711;28;20048;-93
2022/06/27 02:45:32;;;;;;;2.25;1.10;;;17.90;90.00;;;;;;2101326;28;20044;-92
2022/06/27 02:46:52;;;;;;;2.10;1.17;;;17.90;90.00;;;;;;2089098;28;20116;-92
2022/06/27 02:48:16;;;;;;;1.98;1.20;;;17.90;90.00;;;;;;2091631;28;20488;-92
2022/06/27 02:49:39;;;;;;;1.92;0.93;;;17.90;90.00;;;;;;2102669;28;20048;-91
2022/06/27 02:51:05;;;;;;;2.75;1.33;;;17.90;90.10;;;;;;2106760;28;20044;-92
2022/06/27 02:52:35;;;;;;;2.13;1.10;;;17.90;90.10;;;;;;2096065;28;20036;-91
2022/06/27 02:54:26;;;;;;;2.30;0.93;;;17.90;90.10;;;;;;2103428;28;20123;-91
2022/06/27 02:55:49;;;;;;;2.60;1.10;;;17.90;90.10;;;;;;2091139;28;20040;-91
2022/06/27 02:57:34;;;;;;;3.28;1.17;;;17.90;90.10;;;;;;2092964;28;20040;-92
2022/06/27 02:59:25;;;;;;;2.30;1.10;;;17.90;90.10;;;;;;2098152;28;20068;-91
2022/06/27 03:00:48;;;;;;;2.75;1.10;;;17.90;90.10;;;;;;2104497;28;20040;-89
2022/06/27 03:02:09;;;;;;;1.77;1.10;;;17.90;90.10;;;;;;2106859;28;20032;-92
2022/06/27 03:03:31;;;;;;;;;;;17.90;90.10;;;;;;2095879;28;20044;-91
2022/06/27 03:04:50;;;;;;;2.50;1.10;;;17.90;90.00;;;;;;2098409;28;19912;-92
2022/06/27 03:06:12;;;;;;;1.95;1.10;;;17.90;90.00;;;;;;2095200;28;20530;-91
2022/06/27 03:07:40;;;;;;;1.98;1.27;;;17.80;90.00;;;;;;2092728;28;20052;-92
2022/06/27 03:08:59;;;;;;;2.20;1.10;;;17.80;90.10;;;;;;2102134;28;20032;-91
2022/06/27 03:10:18;;;;;;;1.90;1.20;;;17.80;90.10;;;;;;2071433;28;20057;-91
2022/06/27 03:11:37;;;;;;;2.47;1.25;;;17.80;90.10;;;;;;2088493;28;20040;-92
2022/06/27 03:12:58;;;;;;;2.20;1.15;;;17.80;90.10;;;;;;2092282;28;20048;-92
2022/06/27 03:14:19;;;;;;;;;;;17.80;90.10;;;;;;2086635;28;20049;-92
2022/06/27 03:15:44;;;;;;;2.53;1.33;;;17.80;90.10;;;;;;2093673;28;19920;-92
2022/06/27 03:17:04;;;;;;;3.20;1.40;;;17.80;90.10;;;;;;2104269;28;20040;-92
2022/06/27 03:18:24;;;;;;;2.90;1.13;;;17.80;90.10;;;;;;2104390;28;20031;-91
2022/06/27 03:19:43;;;;;;;2.38;1.10;;;17.80;90.40;;;;;;2094086;28;20060;-89
2022/06/27 03:21:03;;;;;;;2.95;1.30;;;17.80;90.20;;;;;;2083616;28;20038;-89
2022/06/27 03:22:23;;;;;;;2.88;1.33;;;17.80;90.20;;;;;;2084075;28;20055;-90
2022/06/27 03:23:43;;;;;;;2.17;1.20;;;17.80;90.30;;;;;;2106545;28;20521;-89
2022/06/27 03:25:04;;;;;;;2.43;1.40;;;17.80;90.30;;;;;;2088237;28;20053;-90
2022/06/27 03:26:24;;;;;;;2.92;1.20;;;17.80;90.30;;;;;;2081605;28;20264;-88
2022/06/27 03:27:43;;;;;;;2.17;1.45;;;17.80;90.30;;;;;;2093335;28;20024;-89
2022/06/27 03:29:04;;;;;;;2.10;1.27;;;17.80;90.30;;;;;;2093671;28;20040;-90
2022/06/27 03:30:25;;;;;;;3.00;1.38;;;17.80;90.30;;;;;;2084070;28;20044;-89
2022/06/27 03:31:44;;;;;;;;;;;17.80;90.40;;;;;;2083584;28;20045;-90
2022/06/27 03:33:05;;;;;;;1.65;1.23;;;17.80;90.30;;;;;;2086969;28;20374;-90
2022/06/27 03:34:25;;;;;;;3.10;1.30;;;17.80;90.30;;;;;;2101549;28;20028;-89
2022/06/27 03:35:44;;;;;;;1.98;1.20;;;17.80;90.40;;;;;;2089822;28;20394;-92
2022/06/27 03:37:08;;;;;;;4.20;1.48;;;17.80;90.40;;;;;;2093216;28;20041;-89
2022/06/27 03:38:27;;;;;;;2.15;1.35;;;17.80;90.40;;;;;;2081738;28;20120;-92
2022/06/27 03:39:47;;;;;;;2.80;1.50;;;17.80;90.50;;;;;;2098206;28;20068;-92
2022/06/27 03:41:06;;;;;;;4.63;1.60;;;17.80;90.50;;;;;;2086773;28;20037;-89
2022/06/27 03:42:27;;;;;;;3.00;1.40;;;17.80;90.50;;;;;;2093035;28;20048;-89
2022/06/27 03:43:55;;;;;;;3.00;1.60;;;17.80;90.50;;;;;;2104824;28;20036;-89
2022/06/27 03:45:15;;;;;;;2.08;1.30;;;17.80;90.60;;;;;;2097284;28;20048;-90
2022/06/27 03:46:35;;;;;;;4.03;1.50;;;17.80;90.60;;;;;;2095624;28;20526;-89
2022/06/27 03:47:59;;;;;;;2.88;1.45;;;17.80;90.60;;;;;;2092586;28;20507;-92
2022/06/27 03:50:58;;;;;;;3.05;1.55;;;17.80;90.60;;;;;;2092838;28;20037;-92
2022/06/27 03:52:18;;;;;;;3.65;1.73;;;17.80;90.60;;;;;;2085747;28;20042;-89
2022/06/27 03:53:37;;;;;;;2.92;1.70;;;17.80;90.70;;;;;;2077148;28;20455;-89
2022/06/27 03:54:57;;;;;;;3.63;1.73;;;17.70;90.70;;;;;;2080655;28;20038;-90
2022/06/27 03:56:16;;;;;;;3.60;1.80;;;17.70;90.70;;;;;;2076596;28;20041;-89
2022/06/27 03:57:46;;;;;;;3.65;1.70;;;17.70;90.80;;;;;;2075877;28;20061;-92
2022/06/27 03:59:08;;;;;;;4.22;2.13;;;17.70;90.80;;;;;;2094840;28;20044;-92
2022/06/27 04:00:32;;;;;;;3.90;1.98;;;17.70;91.10;;;;;;2082831;28;20037;-92
2022/06/27 04:01:54;;;;;;;3.47;1.80;;;17.70;90.90;;;;;;2100753;28;20032;-91
2022/06/27 04:03:14;;;;;;;3.10;2.00;;;17.70;90.90;;;;;;2090916;28;20479;-89
2022/06/27 04:04:34;;;;;;;;;;;17.70;90.90;;;;;;2089017;28;20507;-92
2022/06/27 04:05:54;;;;;;;2.92;1.70;;;17.70;90.90;;;;;;2091181;28;19943;-88
2022/06/27 04:07:13;;;;;;;3.85;1.88;;;17.60;90.90;;;;;;2085620;28;20040;-90
2022/06/27 04:08:34;;;;;;;2.72;1.60;;;17.60;90.90;;;;;;2084471;28;20041;-89
2022/06/27 04:09:55;;;;;;;;;;;17.60;91.00;;;;;;2084538;28;20053;-89
2022/06/27 04:11:15;;;;;;;2.22;1.50;;;17.60;90.90;;;;;;2091634;28;19912;-89
2022/06/27 04:12:35;;;;;;;3.63;1.70;;;17.60;91.00;;;;;;2086740;28;20108;-90
2022/06/27 04:13:54;;;;;;;4.22;1.55;;;17.60;91.00;;;;;;2092754;28;20048;-89
2022/06/27 04:15:13;;;;;;;2.88;1.67;;;17.60;91.10;;;;;;2096544;28;20393;-89
2022/06/27 04:16:34;;;;;;;3.35;1.75;;;17.60;91.10;;;;;;2091627;28;20036;-90
2022/06/27 04:17:53;;;;;;;4.03;1.70;;;17.70;91.10;;;;;;2076971;28;20037;-88
2022/06/27 04:19:13;;;;;;;3.30;1.67;;;17.70;91.10;;;;;;2082245;28;20048;-90
2022/06/27 04:20:32;;;;;;;3.28;1.80;;;17.70;91.20;;;;;;2084825;28;20083;-90
2022/06/27 04:21:52;;;;;;;3.67;1.80;;;17.70;91.20;;;;;;2076391;28;20041;-89
2022/06/27 04:23:17;;;;;;;3.53;1.50;;;17.70;91.20;;;;;;2076635;28;20049;-90
2022/06/27 04:24:41;;;;;;;3.03;1.65;;;17.70;91.20;;;;;;2092065;28;20136;-89
2022/06/27 04:26:01;;;;;;;3.40;1.80;;;17.70;91.30;;;;;;2106248;28;20042;-92
2022/06/27 04:27:21;;;;;;;2.63;1.52;;;17.70;91.30;;;;;;2103898;28;20044;-92
2022/06/27 04:28:41;;;;;;;3.13;1.63;;;17.70;91.60;;;;;;2096447;28;20052;-92
2022/06/27 04:30:01;;;;;;;;;;;17.70;91.30;;;;;;2082905;28;20053;-89
2022/06/27 04:31:24;;;;;;;2.03;1.23;;;17.70;91.30;;;;;;2101627;28;19916;-89
2022/06/27 04:32:45;;;;;;;2.53;1.65;;;17.70;91.30;;;;;;2094647;28;20095;-93
2022/06/27 04:34:05;;;;;;;2.72;1.63;;;17.80;91.30;;;;;;2089074;28;20124;-90
2022/06/27 04:35:25;;;;;;;2.42;1.50;;;17.80;91.40;;;;;;2078117;28;20083;-90
2022/06/27 04:36:45;;;;;;;3.33;1.63;;;17.80;91.40;;;;;;2098615;28;20048;-90
2022/06/27 04:38:05;;;;;;;3.08;1.63;;;17.80;91.40;;;;;;2084806;28;20048;-90
2022/06/27 04:39:25;;;;;;;2.85;1.60;;;17.80;91.40;;;;;;2084796;28;20061;-89
2022/06/27 04:40:45;;;;;;;3.60;1.60;;;17.80;91.40;;;;;;2093087;28;20032;-90
2022/06/27 04:42:06;;;;;;;2.83;1.73;;;17.90;91.40;;;;;;2104602;28;20037;-90
2022/06/27 04:43:26;;;;;;;3.13;1.80;;;17.90;91.40;;;;;;2105048;28;20040;-90
2022/06/27 04:44:45;;;;;;;3.35;1.67;;;17.90;91.40;;;;;;2091596;28;20041;-90
2022/06/27 04:46:05;;;;;;;4.15;1.90;;;17.90;91.40;;;;;;2084675;28;20467;-91
2022/06/27 04:47:25;;;;;;;2.67;1.58;;;17.90;91.40;;;;;;2090241;28;20450;-91
2022/06/27 04:48:45;;;;;;;2.88;1.77;;;17.90;91.40;;;;;;2097101;28;20071;-91
2022/06/27 04:50:05;;;;;;;3.63;2.10;;;18.00;91.40;;;;;;2099318;28;20044;-91
2022/06/27 04:51:25;;;;;;;3.42;1.90;;;18.00;91.40;;;;;;2096100;28;20033;-91
2022/06/27 04:52:45;;;;;;;3.67;1.70;;;18.00;91.40;;;;;;2087776;28;20049;-90
2022/06/27 04:54:04;;;;;;;2.75;1.90;;;18.10;91.40;;;;;;2091501;28;20040;-92
2022/06/27 04:55:24;;;;;;;2.63;1.70;;;18.10;91.40;;;;;;2087029;28;20072;-92
2022/06/27 04:56:44;;;;;;;2.72;1.50;;;18.10;91.30;;;;;;2079558;28;20068;-91
2022/06/27 04:58:05;;;;;;;3.88;1.98;;;18.20;91.40;;;;;;2085052;28;20049;-92
2022/06/27 04:59:25;;;;;;;;;;;18.20;91.30;;;;;;2087252;28;20033;-92
2022/06/27 05:00:46;;;;;;;3.10;1.67;;;18.20;91.30;;;;;;2089176;28;19916;-91
2022/06/27 05:02:07;;;;;;;3.10;1.98;;;18.20;91.30;;;;;;2079680;28;20069;-91
2022/06/27 05:03:27;;;;;;;3.30;1.65;;;18.20;91.30;;;;;;2077256;28;20113;-92
2022/06/27 05:04:46;;;;;;;2.80;1.65;;;18.20;91.30;;;;;;2099396;28;20052;-92
2022/06/27 05:06:06;;;;;;;3.65;1.70;;;18.20;91.30;;;;;;2088230;28;20044;-91
2022/06/27 05:07:28;;;;;;;2.55;1.70;;;18.20;91.30;;;;;;2073220;28;20428;-91
2022/06/27 05:08:48;;;;;;;3.97;1.70;;;18.20;91.40;;;;;;2080246;28;20050;-91
2022/06/27 05:10:08;;;;;;;2.78;1.77;;;18.30;91.40;;;;;;2086193;28;20457;-91
2022/06/27 05:11:27;;;;;;;2.78;1.60;;;18.20;91.40;;;;;;2080055;28;20030;-92
2022/06/27 05:12:48;;;;;;;3.95;2.00;;;18.30;91.40;;;;;;2091513;28;20061;-93
2022/06/27 05:14:08;;;;;;;;;;;18.30;91.40;;;;;;2084829;28;20167;-92
2022/06/27 05:15:28;;;;;;;3.03;1.90;;;18.30;91.40;;;;;;2098546;28;19904;-92
2022/06/27 05:16:48;;;;;;;3.10;1.67;;;18.30;91.30;;;;;;2087986;28;20056;-92
2022/06/27 05:18:08;;;;;;;3.70;1.90;;;18.30;91.30;;;;;;2090928;28;20096;-92
2022/06/27 05:19:27;;;;;;;3.50;2.05;;;18.40;91.60;;;;;;2087617;28;20028;-92
2022/06/27 05:20:47;;;;;;;3.85;2.10;;;18.40;91.30;;;;;;2078784;28;20045;-92
2022/06/27 05:22:07;;;;;;;3.92;2.28;;;18.50;91.30;;;;;;2089824;28;20041;-92
2022/06/27 05:23:26;;;;;;;3.47;2.13;;;18.50;91.30;;;;;;2082220;28;20060;-91
2022/06/27 05:24:52;;;;;;;3.15;2.03;;;18.50;91.30;;;;;;2084339;28;20072;-92
2022/06/27 05:26:13;;;;;;;4.22;2.53;;;18.50;91.30;;;;;;2077045;28;20053;-92
2022/06/27 05:27:34;;;;;;;4.03;2.50;;;18.50;91.20;;;;;;2077613;28;20045;-92
2022/06/27 05:28:56;;;;;;;4.47;2.75;;;18.50;91.30;;;;;;2076508;28;20069;-92
2022/06/27 05:30:15;;;;;;;4.40;2.60;;;18.50;91.20;;;;;;2084497;28;20080;-92
2022/06/27 05:31:36;;;;;;;4.22;2.67;;;18.60;91.30;;;;;;2075789;28;20065;-92
2022/06/27 05:32:55;;;;;;;;;;;18.60;91.30;;;;;;2078685;28;20037;-92
2022/06/27 05:34:16;;;;;;;5.65;2.53;;;18.50;91.20;;;;;;2084312;28;20398;-93
2022/06/27 05:35:36;;;;;;;;;;;18.50;91.20;;;;;;2072895;28;20045;-92
2022/06/27 05:36:56;;;;;;;3.88;2.22;;;18.50;91.20;;;;;;2086205;28;19905;-92
2022/06/27 05:38:15;;;;;;;5.20;2.25;;;18.50;91.20;;;;;;2087564;28;20029;-92
2022/06/27 05:39:35;;;;;;;5.07;2.70;;;18.50;91.20;;;;;;2092250;28;20044;-92
2022/06/27 05:40:54;;;;;;;4.45;2.80;;;18.50;91.30;;;;;;2087648;28;20040;-92
2022/06/27 05:42:14;;;;;;;5.07;3.17;;;18.50;91.30;;;;;;2084350;28;20052;-92
2022/06/27 05:43:33;;;;;;;4.15;2.88;;;18.50;91.30;;;;;;2092777;28;20028;-92
2022/06/27 05:44:55;;;;;;;5.82;3.20;;;18.50;91.30;;;;;;2087256;28;20040;-92
2022/06/27 05:46:15;;;;;;;3.80;2.72;;;18.50;91.30;;;;;;2085592;28;20467;-92
2022/06/27 05:47:36;;;;;;;4.97;2.90;;;18.50;91.40;;;;;;2076922;28;20029;-92
2022/06/27 10:40:19;;;;;;;2.78;1.65;;;21.30;83.60;;;;;;2105371;28;20115;-95
2022/06/27 10:41:39;;;;;;;3.95;1.80;;;21.40;83.30;;;;;;2107920;28;20522;-96
2022/06/27 10:42:58;;;;;;;3.92;1.90;;;21.40;83.10;;;;;;2098253;28;20048;-96
2022/06/27 10:44:31;;;;;;;3.15;1.70;;;21.50;83.50;;;;;;2084183;28;20100;-96
2022/06/27 10:45:50;;;;;;;2.50;1.40;;;21.60;82.60;;;;;;2094965;28;20442;-96
2022/06/27 10:47:37;;;;;;;3.00;1.40;;;21.60;82.50;;;;;;2088480;28;20430;-96
2022/06/27 10:48:58;;;;;;;3.08;1.67;;;21.60;82.40;;;;;;2108056;28;20111;-96
2022/06/27 10:50:19;;;;;;;;;;;21.70;82.40;;;;;;2096388;28;20049;-96
2022/06/27 10:51:38;;;;;;;3.17;1.60;;;21.80;82.40;;;;;;2097869;28;19982;-96
2022/06/27 10:53:18;;;;;;;2.10;1.35;;;21.80;82.30;;;;;;2096218;28;20040;-96
2022/06/27 10:54:40;;;;;;;3.30;1.50;;;21.90;82.00;;;;;;2103181;28;20036;-95
2022/06/27 10:56:31;;;;;;;3.35;1.40;;;21.90;81.70;;;;;;2105235;28;20097;-94
2022/06/27 10:57:52;;;;;;;;;;;22.00;81.40;;;;;;2105459;28;20036;-96
2022/06/27 10:59:14;;;;;;;1.67;1.00;;;22.00;81.40;;;;;;2125409;27;19903;-96
2022/06/27 11:00:41;;;;;;;3.83;1.20;;;22.00;81.30;;;;;;2111196;28;20068;-96
2022/06/27 11:02:06;;;;;;;2.10;1.20;;;22.10;81.00;;;;;;2100874;28;20044;-96
2022/06/27 11:03:26;;;;;;;3.08;1.52;;;22.10;80.80;;;;;;2097697;28;20490;-96
2022/06/27 11:04:45;;;;;;;;;;;22.00;80.70;;;;;;2092154;28;20045;-96
2022/06/27 11:06:05;;;;;;;2.28;1.38;;;22.00;80.80;;;;;;2094227;28;19939;-96
2022/06/27 11:07:25;;;;;;;2.53;1.52;;;22.00;81.00;;;;;;2097708;28;20036;-96
2022/06/27 11:08:46;;;;;;;3.33;1.23;;;22.00;81.00;;;;;;2084725;28;20490;-95
2022/06/27 11:10:06;;;;;;;3.15;1.58;;;22.00;80.90;;;;;;2098865;28;20048;-96
2022/06/27 11:11:28;;;;;;;3.70;1.52;;;22.10;80.80;;;;;;2086298;28;20037;-96
2022/06/27 11:12:47;;;;;;;3.28;1.40;;;22.10;80.60;;;;;;2089934;28;20036;-96
2022/06/27 11:14:08;;;;;;;2.42;1.42;;;22.20;80.50;;;;;;2084694;28;20064;-96
2022/06/27 11:15:28;;;;;;;2.67;1.48;;;22.30;80.30;;;;;;2106810;28;20032;-96
2022/06/27 11:16:49;;;;;;;3.83;1.40;;;22.30;80.20;;;;;;2092817;28;20033;-96
2022/06/27 11:18:09;;;;;;;2.38;1.33;;;22.30;79.90;;;;;;2096465;28;20410;-96
2022/06/27 11:21:36;;;;;;;2.38;1.00;;;22.40;79.50;;;;;;2077175;28;20124;-96
2022/06/27 11:22:58;;;;;;;3.72;1.10;;;22.40;79.40;;;;;;2084553;28;20041;-96
2022/06/27 11:24:18;;;;;;;2.40;1.20;;;22.40;79.20;;;;;;2102953;28;20036;-96
2022/06/27 11:25:47;;;;;;;2.00;1.20;;;22.40;79.10;;;;;;2099361;28;20028;-96
2022/06/27 11:27:06;;;;;;;1.30;0.90;;;22.40;78.80;;;;;;2102901;28;20028;-96
2022/06/27 11:32:11;;;;;;;2.03;0.88;;;22.30;77.80;;;;;;2107622;28;20044;-96
2022/06/27 11:33:32;;;;;;;1.42;0.80;;;22.30;77.60;;;;;;2099002;28;20119;-96
2022/06/27 11:34:53;;;;;;;1.85;1.00;;;22.30;77.50;;;;;;2096120;28;20037;-96
2022/06/27 11:36:13;;;;;;;2.13;1.00;;;22.30;77.30;;;;;;2103913;28;20482;-96
2022/06/27 11:37:33;;;;;;;2.15;1.20;;;22.40;77.10;;;;;;2104640;28;20036;-96
2022/06/27 11:38:53;;;;;;;2.83;1.00;;;22.30;77.20;;;;;;2104416;28;20035;-96
2022/06/27 11:40:12;;;;;;;3.03;1.10;;;22.30;77.30;;;;;;2098521;28;20517;-96
2022/06/27 11:41:36;;;;;;;2.45;1.10;;;22.20;77.40;;;;;;2096538;28;20032;-96
2022/06/27 11:42:55;;;;;;;2.45;1.10;;;22.20;77.60;;;;;;2102555;28;20580;-96
2022/06/27 11:44:14;;;;;;;1.77;0.90;;;22.10;77.60;;;;;;2090577;28;20192;-95
2022/06/27 11:45:43;;;;;;;2.38;1.38;;;22.00;77.70;;;;;;2099250;28;20115;-96
2022/06/27 11:47:08;;;;;;;3.15;1.20;;;22.00;77.90;;;;;;2088958;28;20033;-96
2022/06/27 11:48:30;;;;;;;3.28;1.10;;;21.90;78.00;;;;;;2096840;28;20103;-96
2022/06/27 11:50:15;;;;;;;2.78;1.10;;;21.90;78.10;;;;;;2096992;28;20049;-94
2022/06/27 11:51:37;;;;;;;2.42;1.10;;;21.90;78.00;;;;;;2107981;28;20032;-96
2022/06/27 11:53:02;;;;;;;3.20;1.23;;;21.80;78.00;;;;;;2104451;28;20071;-95
2022/06/27 11:54:21;;;;;;;1.88;1.10;;;21.80;78.10;;;;;;2102822;28;20468;-96
2022/06/27 11:55:40;;;;;;;3.65;1.15;;;21.80;78.20;;;;;;2097220;28;20072;-95
2022/06/27 11:57:38;;;;;;;3.50;1.17;;;21.80;78.10;;;;;;2098548;28;20491;-96
2022/06/27 11:59:03;;;;;;;2.15;1.02;;;21.90;78.20;;;;;;2104932;28;20028;-96
2022/06/27 12:05:07;;;;;;;2.50;1.20;;;21.80;78.30;;;;;;2108904;28;20028;-90
2022/06/27 12:06:55;;;;;;;3.60;1.30;;;21.80;78.40;;;;;;2107560;28;20115;-96
2022/06/27 12:08:16;;;;;;;1.75;1.02;;;21.80;78.40;;;;;;2109284;28;20515;-96
2022/06/27 12:09:51;;;;;;;;;;;21.90;78.50;;;;;;2105403;28;20032;-96
2022/06/27 12:11:27;;;;;;;4.32;1.10;;;21.90;78.60;;;;;;2109025;28;19912;-95